Time;durP1;ratioP1;P1;durP2;ratioP2;P2;SDS_P1;SDS_P2;PMS_P1;PMS_P2;Temp;Humidity;BMP_temperature;BMP_pressure;BME280_temperature;BME280_humidity;BME280_pressure;Samples;Min_cycle;Max_cycle;Signal;HPM_P1;HPM_P2
2021/03/02 00:00:35;;;;;;;31.45;21.63;;;3.70;99.90;;;;;;4906149;29;20177;-90
2021/03/02 00:03:32;;;;;;;;;;;;;;;;;;;;;
2021/03/02 00:09:24;;;;;;;29.45;20.25;;;3.80;99.20;;;;;;4920265;29;20209;-91
2021/03/02 00:12:05;;;;;;;;;;;;;;;;;;;;;
2021/03/02 00:14:51;;;;;;;;;;;;;;;;;;;;;
2021/03/02 00:17:42;;;;;;;24.33;19.48;;;4.00;98.30;;;;;;4921385;29;20196;-92
2021/03/02 00:20:35;;;;;;;26.42;19.55;;;4.00;96.80;;;;;;4906516;29;20176;-90
2021/03/02 00:23:35;;;;;;;28.42;19.75;;;3.90;98.20;;;;;;4905403;29;20205;-90
2021/03/02 00:26:47;;;;;;;;;;;;;;;;;;;;;
2021/03/02 00:29:49;;;;;;;30.10;19.52;;;4.00;98.20;;;;;;4919793;29;20200;-91
2021/03/02 00:32:58;;;;;;;23.60;17.45;;;4.00;97.80;;;;;;4907632;29;20177;-90
2021/03/02 00:36:18;;;;;;;24.73;18.83;;;4.00;96.00;;;;;;4923652;29;20232;-90
2021/03/02 00:39:16;;;;;;;27.30;19.92;;;4.00;97.40;;;;;;4922685;29;20169;-92
2021/03/02 00:45:12;;;;;;;28.13;19.70;;;3.90;95.80;;;;;;4908311;29;20176;-91
2021/03/02 00:47:51;;;;;;;;;;;;;;;;;;;;;
2021/03/02 00:50:31;;;;;;;27.13;19.55;;;3.60;97.80;;;;;;4920747;29;20196;-91
2021/03/02 00:53:03;;;;;;;28.83;19.55;;;3.60;96.60;;;;;;4902834;29;20180;-91
2021/03/02 00:55:29;;;;;;;26.30;19.42;;;3.70;98.00;;;;;;4903085;29;20231;-91
2021/03/02 00:58:05;;;;;;;26.27;20.50;;;3.70;97.80;;;;;;4921205;29;20184;-91
2021/03/02 01:01:00;;;;;;;27.55;21.17;;;3.60;96.50;;;;;;4904590;29;20184;-91
2021/03/02 01:08:50;;;;;;;30.70;20.98;;;3.40;97.90;;;;;;5006294;23;20281;-90
2021/03/02 01:11:25;;;;;;;26.85;19.75;;;;;;;;;;4921554;29;20175;-91
2021/03/02 01:14:09;;;;;;;32.30;21.65;;;;;;;;;;4940676;29;20192;-91
2021/03/02 01:16:37;;;;;;;34.00;21.40;;;;;;;;;;4924084;29;20243;-91
2021/03/02 01:19:11;;;;;;;29.60;20.95;;;;;;;;;;4938308;29;20180;-91
2021/03/02 01:21:52;;;;;;;33.70;23.27;;;;;;;;;;4938751;29;20287;-91
2021/03/02 01:24:36;;;;;;;36.92;21.67;;;;;;;;;;4895886;29;20224;-91
2021/03/02 01:27:30;;;;;;;33.50;22.92;;;;;;;;;;4917923;29;20205;-90
2021/03/02 01:30:09;;;;;;;32.15;21.70;;;;;;;;;;4924929;29;20176;-91
2021/03/02 01:32:50;;;;;;;34.45;23.92;;;;;;;;;;4925207;29;20236;-91
2021/03/02 01:38:11;;;;;;;39.05;25.08;;;;;;;;;;4941618;29;20171;-91
2021/03/02 02:03:00;;;;;;;39.53;22.83;;;;;;;;;;5362817;23;20288;-91
2021/03/02 02:05:28;;;;;;;45.25;25.52;;;;;;;;;;4832381;29;20171;-91
2021/03/02 02:26:32;;;;;;;37.78;24.80;;;;;;;;;;5566715;23;20226;-89
2021/03/02 02:28:59;;;;;;;38.53;25.48;;;;;;;;;;4925028;29;20211;-90
2021/03/02 02:31:38;;;;;;;;;;;;;;;;;;;;;
2021/03/02 02:34:07;;;;;;;32.53;23.90;;;;;;;;;;4939592;29;20215;-90
2021/03/02 02:36:39;;;;;;;36.20;23.98;;;;;;;;;;4940192;29;20187;-89
2021/03/02 03:06:10;;;;;;;33.15;23.52;;;;;;;;;;5268730;23;20236;-91
2021/03/02 03:08:42;;;;;;;37.47;25.00;;;;;;;;;;4885210;29;20201;-91
2021/03/02 03:11:35;;;;;;;43.10;25.25;;;;;;;;;;4901673;29;20180;-89
2021/03/02 03:14:08;;;;;;;34.47;23.27;;;;;;;;;;4885514;29;20220;-89
2021/03/02 03:16:54;;;;;;;36.40;24.70;;;;;;;;;;4883625;29;20186;-91
2021/03/02 03:19:29;;;;;;;34.47;22.17;;;;;;;;;;4883076;29;20185;-91
2021/03/02 03:21:57;;;;;;;32.90;22.50;;;;;;;;;;4883713;29;20210;-91
2021/03/02 03:24:26;;;;;;;31.45;22.13;;;;;;;;;;4897608;29;20190;-90
2021/03/02 03:26:56;;;;;;;35.42;23.35;;;;;;;;;;4883933;29;20162;-90
2021/03/02 03:29:31;;;;;;;40.53;25.73;;;;;;;;;;4901620;29;20157;-89
2021/03/02 03:32:03;;;;;;;40.22;25.40;;;;;;;;;;4885430;29;20168;-90
2021/03/02 03:35:01;;;;;;;41.90;25.60;;;;;;;;;;4885474;29;20206;-90
2021/03/02 03:37:27;;;;;;;34.22;24.17;;;;;;;;;;4885005;29;20180;-90
2021/03/02 03:40:08;;;;;;;;;;;;;;;;;;;;;
2021/03/02 03:42:40;;;;;;;30.95;22.83;;;;;;;;;;4889683;29;20217;-90
2021/03/02 03:45:21;;;;;;;38.95;23.58;;;2.20;99.90;;;;;;4905487;29;20169;-89
2021/03/02 03:48:45;;;;;;;29.10;21.90;;;2.30;99.90;;;;;;4903873;29;20177;-89
2021/03/02 03:52:15;;;;;;;37.00;22.55;;;2.20;99.90;;;;;;4905666;29;20252;-90
2021/03/02 03:55:13;;;;;;;28.92;19.67;;;2.10;99.90;;;;;;4899726;29;20279;-90
2021/03/02 03:57:41;;;;;;;29.80;20.70;;;2.20;99.90;;;;;;4872554;29;20212;-89
2021/03/02 04:03:47;;;;;;;29.25;20.02;;;2.10;99.40;;;;;;4897685;29;20189;-90
2021/03/02 04:06:42;;;;;;;31.27;20.48;;;2.20;97.90;;;;;;4911736;29;20236;-86
2021/03/02 04:09:24;;;;;;;28.83;18.60;;;2.20;99.80;;;;;;4909768;29;20191;-88
2021/03/02 04:14:32;;;;;;;29.17;20.33;;;2.10;97.60;;;;;;5225263;23;20236;-91
2021/03/02 04:17:06;;;;;;;25.05;19.58;;;2.00;99.00;;;;;;4921755;29;20220;-88
2021/03/02 04:19:53;;;;;;;26.88;18.80;;;2.10;99.10;;;;;;4923369;29;20203;-89
2021/03/02 04:22:30;;;;;;;26.58;17.73;;;2.10;99.00;;;;;;4906638;29;20208;-90
2021/03/02 04:25:09;;;;;;;26.17;18.17;;;2.20;98.80;;;;;;4923238;29;20164;-89
2021/03/02 04:27:53;;;;;;;27.48;19.02;;;2.10;97.30;;;;;;4922852;29;20176;-90
2021/03/02 04:30:38;;;;;;;39.28;19.83;;;2.00;98.90;;;;;;4923798;29;20173;-89
2021/03/02 04:33:23;;;;;;;26.73;18.95;;;1.90;98.90;;;;;;4922569;29;20176;-89
2021/03/02 04:36:05;;;;;;;27.88;19.73;;;2.00;97.80;;;;;;4921358;29;20198;-90
2021/03/02 04:38:54;;;;;;;30.13;19.67;;;1.90;98.10;;;;;;4914727;29;20205;-88
2021/03/02 04:42:01;;;;;;;27.17;19.15;;;1.80;98.50;;;;;;4920280;29;20244;-90
2021/03/02 04:44:37;;;;;;;25.15;17.77;;;1.80;99.90;;;;;;4918405;29;20184;-90
2021/03/02 04:47:07;;;;;;;24.20;17.35;;;1.90;98.90;;;;;;4920473;29;20224;-90
2021/03/02 04:49:59;;;;;;;26.48;19.40;;;1.80;99.00;;;;;;4921945;29;20195;-91
2021/03/02 04:52:50;;;;;;;25.02;16.80;;;1.90;99.10;;;;;;4921611;29;20189;-89
2021/03/02 04:55:25;;;;;;;27.17;18.60;;;1.90;97.60;;;;;;4921109;29;20244;-90
2021/03/02 04:58:15;;;;;;;25.33;17.58;;;2.00;97.50;;;;;;4921919;29;20180;-90
2021/03/02 05:00:44;;;;;;;25.70;16.70;;;;;;;;;;5023402;23;20243;-90
2021/03/02 05:03:20;;;;;;;;;;;;;;;;;;;;;
2021/03/02 05:05:48;;;;;;;27.30;20.17;;;1.90;98.90;;;;;;4934765;29;20208;-90
2021/03/02 05:08:14;;;;;;;28.35;18.73;;;1.80;99.30;;;;;;4939009;29;20230;-85
2021/03/02 05:10:53;;;;;;;30.73;20.23;;;1.70;99.80;;;;;;4924326;29;20164;-89
2021/03/02 05:14:15;;;;;;;;;;;;;;;;;;;;;
2021/03/02 05:19:20;;;;;;;32.25;20.27;;;1.60;99.30;;;;;;5014743;23;20224;-89
2021/03/02 05:21:46;;;;;;;26.13;20.65;;;;;;;;;;5828555;23;20203;-87
2021/03/02 05:24:15;;;;;;;27.70;17.33;;;;;;;;;;5644157;23;20231;-87
2021/03/02 05:26:51;;;;;;;;;;;;;;;;;;;;;
2021/03/02 05:29:18;;;;;;;70.95;33.92;;;1.70;97.30;;;;;;5170011;23;20274;-90
2021/03/02 05:35:03;;;;;;;26.92;18.20;;;1.80;95.30;;;;;;5427272;23;20220;-91
2021/03/02 05:37:56;;;;;;;23.05;14.70;;;1.60;96.00;;;;;;4938426;29;20239;-90
2021/03/02 05:40:24;;;;;;;25.38;18.10;;;1.60;94.50;;;;;;4914222;29;20184;-91
2021/03/02 05:42:54;;;;;;;23.33;18.02;;;1.60;96.10;;;;;;4921497;29;20215;-90
2021/03/02 05:45:38;;;;;;;25.50;17.83;;;1.60;94.40;;;;;;4901172;29;20278;-91
2021/03/02 05:48:32;;;;;;;19.65;15.50;;;1.60;94.10;;;;;;4934711;29;20190;-91
2021/03/02 05:56:53;;;;;;;;;;;;;;;;;;;;;
2021/03/02 05:59:27;;;;;;;22.00;16.98;;;1.40;95.00;;;;;;4932517;29;20196;-90
2021/03/02 06:01:57;;;;;;;23.88;15.63;;;1.60;93.60;;;;;;4922040;29;20160;-90
2021/03/02 06:04:41;;;;;;;20.63;16.60;;;1.40;95.10;;;;;;4919099;29;20742;-91
2021/03/02 06:07:25;;;;;;;18.88;16.23;;;1.50;95.00;;;;;;4914737;29;20190;-90
2021/03/02 06:09:52;;;;;;;21.27;14.68;;;1.50;95.20;;;;;;4937455;29;20164;-89
2021/03/02 06:12:49;;;;;;;18.77;15.53;;;1.50;95.10;;;;;;4937979;29;20179;-91
2021/03/02 06:15:20;;;;;;;19.42;15.45;;;2.20;94.40;;;;;;4923865;29;20223;-89
2021/03/02 06:18:08;;;;;;;22.70;15.27;;;1.60;94.80;;;;;;4919703;29;20231;-87
2021/03/02 06:20:45;;;;;;;21.02;15.82;;;1.60;93.50;;;;;;4919199;29;20183;-91
2021/03/02 06:23:34;;;;;;;22.60;14.45;;;1.60;94.40;;;;;;4905273;29;20204;-88
2021/03/02 06:26:09;;;;;;;15.75;13.65;;;1.60;94.50;;;;;;4921988;29;20168;-87
2021/03/02 06:29:11;;;;;;;24.85;14.85;;;1.60;94.50;;;;;;4920846;29;20198;-89
2021/03/02 06:32:02;;;;;;;20.00;14.10;;;1.70;99.90;;;;;;4828610;29;20195;-89
2021/03/02 06:34:34;;;;;;;18.27;14.75;;;;;;;;;;4841187;29;20588;-90
2021/03/02 06:37:08;;;;;;;20.88;16.60;;;1.80;92.90;;;;;;4840775;29;20266;-88
2021/03/02 06:40:00;;;;;;;17.25;14.55;;;1.80;92.70;;;;;;4824013;29;20186;-88
2021/03/02 06:42:38;;;;;;;19.90;15.27;;;1.70;92.70;;;;;;4882060;29;20266;-89
2021/03/02 06:45:22;;;;;;;20.38;13.98;;;2.50;94.00;;;;;;4917273;29;20236;-90
2021/03/02 06:48:02;;;;;;;17.95;13.63;;;2.20;94.60;;;;;;4900058;29;20195;-90
2021/03/02 06:50:38;;;;;;;16.80;13.57;;;1.90;94.40;;;;;;4899689;29;20182;-86
2021/03/02 06:53:17;;;;;;;15.43;13.60;;;1.90;97.30;;;;;;4886386;29;20180;-89
2021/03/02 06:56:28;;;;;;;16.90;13.20;;;1.90;97.80;;;;;;4919002;29;20173;-90
2021/03/02 06:59:23;;;;;;;19.55;13.50;;;2.20;96.80;;;;;;4915794;29;20192;-87
2021/03/02 07:02:02;;;;;;;19.95;14.77;;;1.90;97.80;;;;;;4913607;29;20172;-89
2021/03/02 07:05:09;;;;;;;16.17;13.98;;;1.80;96.20;;;;;;4901238;29;20264;-91
2021/03/02 07:10:53;;;;;;;13.05;11.73;;;2.30;97.00;;;;;;4955193;23;20236;-89
2021/03/02 07:13:39;;;;;;;12.32;10.15;;;2.80;98.50;;;;;;4916336;29;20212;-90
2021/03/02 07:16:11;;;;;;;11.07;10.02;;;3.50;96.40;;;;;;4901915;29;20188;-89
2021/03/02 07:18:44;;;;;;;9.30;8.40;;;4.20;95.80;;;;;;4906826;29;20229;-87
2021/03/02 07:23:48;;;;;;;10.55;9.55;;;5.70;90.90;;;;;;5470498;23;20239;-90
2021/03/02 07:31:35;;;;;;;13.02;10.15;;;7.10;81.70;;;;;;4818446;23;20240;-90
2021/03/02 07:34:12;;;;;;;10.13;9.13;;;;;;;;;;4904282;29;20199;-90
2021/03/02 07:37:07;;;;;;;10.77;9.77;;;;;;;;;;4884091;29;20264;-88
2021/03/02 07:40:30;;;;;;;11.97;10.03;;;;;;;;;;4901047;29;20430;-88
2021/03/02 07:43:27;;;;;;;10.67;9.77;;;8.60;90.40;;;;;;4882590;29;20454;-88
2021/03/02 07:45:54;;;;;;;12.83;11.40;;;8.70;85.90;;;;;;4881884;29;20406;-89
2021/03/02 07:48:50;;;;;;;40.40;22.10;;;;;;;;;;4882996;29;20438;-93
2021/03/02 07:51:32;;;;;;;12.90;11.70;;;9.90;72.60;;;;;;4859896;29;20429;-86
2021/03/02 07:54:16;;;;;;;10.60;9.60;;;10.20;68.10;;;;;;4880092;29;20461;-86
2021/03/02 07:56:42;;;;;;;10.77;9.80;;;11.00;59.40;;;;;;4864362;29;20177;-88
2021/03/02 07:59:10;;;;;;;10.57;9.70;;;10.80;56.90;;;;;;4881805;29;20806;-86
2021/03/02 08:01:37;;;;;;;10.00;9.00;;;10.70;56.90;;;;;;4866465;29;20185;-86
2021/03/02 08:04:24;;;;;;;11.37;10.20;;;11.20;72.60;;;;;;4871455;29;20441;-87
2021/03/02 08:06:50;;;;;;;9.33;8.63;;;11.60;55.40;;;;;;4887702;29;20429;-87
2021/03/02 08:09:29;;;;;;;12.23;9.33;;;11.70;55.10;;;;;;4895219;29;20565;-87
2021/03/02 08:12:16;;;;;;;10.13;9.20;;;;;;;;;;4864043;29;20969;-86
2021/03/02 08:14:41;;;;;;;10.13;9.33;;;11.90;71.70;;;;;;4882130;29;20817;-86
2021/03/02 08:17:08;;;;;;;10.33;9.30;;;;;;;;;;4896379;29;20425;-87
2021/03/02 08:19:50;;;;;;;10.43;9.60;;;12.40;56.20;;;;;;4866071;29;20196;-87
2021/03/02 08:22:19;;;;;;;12.37;11.17;;;12.70;54.80;;;;;;4882610;29;20585;-88
2021/03/02 08:24:53;;;;;;;10.93;10.00;;;12.10;57.30;;;;;;4866309;29;20454;-87
2021/03/02 08:27:37;;;;;;;10.17;9.33;;;;;;;;;;4884190;29;20418;-87
2021/03/02 08:30:06;;;;;;;10.70;9.53;;;13.20;47.50;;;;;;4886152;29;20477;-87
2021/03/02 08:32:35;;;;;;;12.13;10.50;;;13.60;48.40;;;;;;4891920;29;20429;-86
2021/03/02 08:35:09;;;;;;;12.63;11.30;;;13.80;46.20;;;;;;4884277;29;21000;-87
2021/03/02 08:37:39;;;;;;;10.57;9.60;;;15.20;46.30;;;;;;4884075;29;20432;-87
2021/03/02 08:40:07;;;;;;;11.07;9.63;;;15.20;40.00;;;;;;4901300;29;20492;-86
2021/03/02 08:42:33;;;;;;;13.23;11.83;;;16.10;39.00;;;;;;4902344;29;20421;-87
2021/03/02 08:45:29;;;;;;;10.03;9.30;;;17.90;41.80;;;;;;4897816;29;20476;-89
2021/03/02 08:48:14;;;;;;;11.90;10.80;;;16.70;40.60;;;;;;4893068;29;20426;-90
2021/03/02 08:50:40;;;;;;;10.97;10.10;;;17.00;39.70;;;;;;4881437;29;20434;-86
2021/03/02 08:53:37;;;;;;;11.60;10.23;;;18.50;40.40;;;;;;4881871;29;20402;-87
2021/03/02 08:56:18;;;;;;;;;;;;;;;;;;;;;
2021/03/02 08:58:55;;;;;;;11.80;10.80;;;17.90;39.30;;;;;;4885197;29;20444;-89
2021/03/02 09:01:54;;;;;;;14.50;10.93;;;22.20;39.00;;;;;;4900973;29;20477;-89
2021/03/02 09:04:29;;;;;;;11.07;10.17;;;19.00;35.40;;;;;;4885646;29;20489;-89
2021/03/02 09:06:57;;;;;;;13.10;11.07;;;19.60;36.20;;;;;;4873932;29;20494;-89
2021/03/02 09:09:25;;;;;;;10.83;9.87;;;20.10;36.20;;;;;;4879101;29;20421;-90
2021/03/02 09:11:53;;;;;;;11.87;10.70;;;21.90;34.70;;;;;;4875719;29;20426;-88
2021/03/02 09:14:37;;;;;;;12.40;11.37;;;21.30;51.20;;;;;;4877396;29;20846;-90
2021/03/02 09:17:06;;;;;;;13.00;11.17;;;23.10;36.40;;;;;;4521735;29;9999956;-89
2021/03/02 09:19:40;;;;;;;14.63;11.57;;;23.90;37.20;;;;;;4870905;29;20192;-88
2021/03/02 09:22:06;;;;;;;12.80;11.37;;;22.40;40.80;;;;;;4855726;29;20437;-87
2021/03/02 09:24:35;;;;;;;11.90;10.90;;;22.50;39.40;;;;;;4868432;29;20474;-89
2021/03/02 09:27:14;;;;;;;10.77;10.03;;;22.70;39.60;;;;;;4885405;29;20429;-88
2021/03/02 09:29:42;;;;;;;10.23;9.53;;;23.20;37.30;;;;;;4867434;29;20481;-88
2021/03/02 09:32:08;;;;;;;11.83;10.63;;;23.40;37.70;;;;;;4887280;29;20454;-88
2021/03/02 09:34:54;;;;;;;9.77;8.80;;;23.10;37.70;;;;;;4889858;29;20417;-89
2021/03/02 09:37:44;;;;;;;11.60;10.53;;;23.60;42.50;;;;;;4865904;29;20481;-88
2021/03/02 09:40:14;;;;;;;9.37;8.67;;;23.50;39.10;;;;;;4825990;29;20425;-90
2021/03/02 09:42:56;;;;;;;10.53;9.67;;;24.60;39.00;;;;;;4982708;23;20479;-88
2021/03/02 09:45:22;;;;;;;9.27;8.57;;;26.00;39.50;;;;;;4874512;29;20586;-87
2021/03/02 09:47:56;;;;;;;9.70;9.00;;;23.60;38.10;;;;;;4864735;29;20563;-88
2021/03/02 09:50:22;;;;;;;10.63;9.57;;;24.30;33.00;;;;;;4864418;29;20178;-85
2021/03/02 09:52:49;;;;;;;9.37;8.60;;;;;;;;;;4864799;29;20434;-85
2021/03/02 09:55:32;;;;;;;8.73;7.93;;;25.50;37.90;;;;;;4863510;29;20194;-87
2021/03/02 09:57:59;;;;;;;10.60;9.50;;;25.70;37.80;;;;;;4867040;29;20448;-87
2021/03/02 10:00:33;;;;;;;9.63;8.93;;;27.50;36.20;;;;;;4864141;29;21315;-87
2021/03/02 10:03:22;;;;;;;10.03;9.27;;;25.70;32.80;;;;;;4867211;29;20509;-85
2021/03/02 10:05:55;;;;;;;10.40;9.40;;;25.60;32.70;;;;;;4865161;29;20934;-88
2021/03/02 10:08:39;;;;;;;9.03;8.23;;;27.40;33.30;;;;;;4865307;29;20418;-86
2021/03/02 10:11:14;;;;;;;9.43;8.70;;;;;;;;;;4863941;29;20487;-86
2021/03/02 10:13:51;;;;;;;11.07;10.17;;;;;;;;;;4864661;29;20421;-87
2021/03/02 10:16:38;;;;;;;11.10;9.07;;;;;;;;;;4862859;29;20419;-87
2021/03/02 10:19:20;;;;;;;10.50;8.70;;;;;;;;;;4864535;29;20418;-86
2021/03/02 10:21:46;;;;;;;8.73;8.00;;;;;;;;;;4869653;29;20840;-85
2021/03/02 10:24:25;;;;;;;8.40;7.87;;;;;;;;;;4533447;29;10000456;-88
2021/03/02 10:26:53;;;;;;;8.10;7.60;;;;;;;;;;4869804;29;20174;-87
2021/03/02 10:29:22;;;;;;;7.70;7.00;;;;;;;;;;4870137;29;20419;-86
2021/03/02 10:31:49;;;;;;;9.20;7.07;;;;;;;;;;4872953;29;20425;-86
2021/03/02 10:34:15;;;;;;;8.20;7.50;;;;;;;;;;4870792;29;20414;-86
2021/03/02 10:36:51;;;;;;;8.87;8.17;;;25.80;38.10;;;;;;4869326;29;20451;-87
2021/03/02 10:39:17;;;;;;;10.10;9.10;;;26.20;38.50;;;;;;4861818;29;20787;-86
2021/03/02 10:41:44;;;;;;;8.63;8.03;;;25.40;35.50;;;;;;4858829;29;20419;-85
2021/03/02 10:44:16;;;;;;;8.47;7.87;;;25.90;37.40;;;;;;4874346;29;20561;-87
2021/03/02 10:46:42;;;;;;;9.57;8.80;;;26.20;40.00;;;;;;5027017;23;20491;-89
2021/03/02 10:49:10;;;;;;;9.30;8.60;;;26.40;40.10;;;;;;5059941;23;20540;-90
2021/03/02 10:51:56;;;;;;;8.87;8.20;;;26.40;40.40;;;;;;4920201;29;20496;-87
2021/03/02 10:54:25;;;;;;;8.83;7.87;;;26.70;40.40;;;;;;5153410;23;20472;-89
2021/03/02 10:59:19;;;;;;;9.33;8.63;;;;;;;;;;4899041;29;20484;-88
2021/03/02 11:01:48;;;;;;;8.87;8.27;;;;;;;;;;4884552;29;20436;-87
2021/03/02 11:04:13;;;;;;;8.13;7.40;;;25.60;44.70;;;;;;4902275;29;20488;-86
2021/03/02 11:06:42;;;;;;;9.17;8.37;;;25.80;43.20;;;;;;4883932;29;20494;-86
2021/03/02 11:09:08;;;;;;;9.73;8.10;;;;;;;;;;4883837;29;20173;-88
2021/03/02 11:11:41;;;;;;;9.07;8.27;;;26.10;29.60;;;;;;4883127;29;20449;-87
2021/03/02 11:14:14;;;;;;;8.07;7.37;;;26.40;29.00;;;;;;4876531;29;20437;-88
2021/03/02 11:16:43;;;;;;;9.03;8.13;;;27.90;34.00;;;;;;4911870;23;20489;-87
2021/03/02 11:19:11;;;;;;;9.37;7.00;;;26.90;40.10;;;;;;4885736;29;20450;-87
2021/03/02 11:21:37;;;;;;;7.30;6.70;;;27.10;30.40;;;;;;4875627;29;20422;-86
2021/03/02 11:24:03;;;;;;;7.73;7.10;;;26.90;30.80;;;;;;4876398;29;20462;-90
2021/03/02 11:26:31;;;;;;;8.00;7.40;;;26.90;29.40;;;;;;4874515;29;20574;-89
2021/03/02 11:28:57;;;;;;;8.50;7.70;;;25.80;27.90;;;;;;4875254;29;20178;-90
2021/03/02 11:31:23;;;;;;;7.47;6.90;;;26.40;33.60;;;;;;4879205;29;20462;-90
2021/03/02 11:33:48;;;;;;;8.57;7.97;;;26.90;32.00;;;;;;4897034;29;20174;-90
2021/03/02 11:36:40;;;;;;;8.87;7.83;;;26.20;32.00;;;;;;4883393;29;20171;-87
2021/03/02 11:39:22;;;;;;;7.57;6.70;;;26.80;31.80;;;;;;4964044;23;20499;-89
2021/03/02 11:41:58;;;;;;;8.10;7.40;;;25.50;31.50;;;;;;4920330;29;20425;-90
2021/03/02 11:44:31;;;;;;;9.10;8.40;;;26.40;31.20;;;;;;4902768;29;20468;-89
2021/03/02 11:47:00;;;;;;;8.17;7.50;;;27.30;31.20;;;;;;4902067;29;20441;-87
2021/03/02 11:50:05;;;;;;;8.40;7.80;;;26.60;29.50;;;;;;4902841;29;20421;-91
2021/03/02 11:55:08;;;;;;;7.27;6.80;;;26.70;29.60;;;;;;5041854;23;20818;-89
2021/03/02 12:03:07;;;;;;;7.03;6.60;;;29.10;23.90;;;;;;5318445;23;20486;-87
2021/03/02 12:11:02;;;;;;;8.37;7.77;;;31.40;27.70;;;;;;5047958;23;20607;-90
2021/03/02 12:13:28;;;;;;;10.00;9.13;;;31.00;26.70;;;;;;4915441;29;20405;-87
2021/03/02 12:15:55;;;;;;;8.47;7.80;;;28.60;27.10;;;;;;4884333;29;20444;-88
2021/03/02 12:18:28;;;;;;;8.27;7.77;;;29.00;28.90;;;;;;4899134;29;20189;-90
2021/03/02 12:26:21;;;;;;;9.87;9.17;;;29.30;24.50;;;;;;5050248;23;20476;-86
2021/03/02 12:28:49;;;;;;;8.60;8.00;;;30.20;28.60;;;;;;4912687;29;20440;-91
2021/03/02 12:31:15;;;;;;;9.40;8.80;;;30.40;29.10;;;;;;4951804;23;20451;-87
2021/03/02 12:36:13;;;;;;;11.10;10.20;;;29.30;24.50;;;;;;5421709;23;20316;-92
2021/03/02 12:38:57;;;;;;;8.60;8.10;;;31.00;26.60;;;;;;5168194;23;20484;-90
2021/03/02 12:41:30;;;;;;;9.67;8.97;;;31.50;25.40;;;;;;4900883;29;20444;-91
2021/03/02 12:44:16;;;;;;;9.80;8.90;;;29.50;24.60;;;;;;4885264;29;20465;-89
2021/03/02 12:46:46;;;;;;;9.83;8.93;;;28.50;23.90;;;;;;4959441;23;20509;-86
2021/03/02 12:54:35;;;;;;;11.33;8.70;;;28.70;24.10;;;;;;4898769;29;20457;-88
2021/03/02 12:57:02;;;;;;;10.70;9.63;;;30.80;24.70;;;;;;5185063;23;20837;-89
2021/03/02 12:59:34;;;;;;;9.80;8.80;;;25.70;25.50;;;;;;4919095;23;20499;-91
2021/03/02 13:02:03;;;;;;;10.67;9.73;;;31.30;24.60;;;;;;5038068;23;20260;-88
2021/03/02 13:04:38;;;;;;;10.73;9.40;;;31.00;26.20;;;;;;4916270;29;20992;-91
2021/03/02 13:07:08;;;;;;;12.47;11.27;;;32.90;27.40;;;;;;4902091;29;20457;-91
2021/03/02 13:09:35;;;;;;;10.70;9.70;;;28.70;24.80;;;;;;4917771;29;20425;-88
2021/03/02 13:12:20;;;;;;;9.93;9.13;;;29.20;24.60;;;;;;4919348;29;20413;-90
2021/03/02 13:17:36;;;;;;;10.53;8.77;;;31.60;27.40;;;;;;4917531;29;20416;-91
2021/03/02 13:20:11;;;;;;;9.80;8.90;;;30.00;26.20;;;;;;4917825;29;20430;-89
2021/03/02 13:23:06;;;;;;;;;;;;;;;;;;;;;
2021/03/02 13:41:49;;;;;;;10.23;9.10;;;27.30;23.90;;;;;;4897804;29;20452;-90
2021/03/02 13:44:22;;;;;;;9.27;8.40;;;31.60;26.90;;;;;;4883695;29;20505;-88
2021/03/02 13:46:52;;;;;;;11.63;9.73;;;29.60;26.40;;;;;;4881654;29;20434;-88
2021/03/02 13:49:21;;;;;;;10.63;9.73;;;26.60;25.80;;;;;;4895185;29;20429;-87
2021/03/02 13:51:52;;;;;;;13.90;10.53;;;27.70;27.50;;;;;;4894637;29;20439;-88
2021/03/02 13:54:18;;;;;;;10.80;9.30;;;27.20;26.40;;;;;;4893636;29;20426;-88
2021/03/02 13:56:44;;;;;;;11.60;10.60;;;28.50;26.00;;;;;;4894318;29;20462;-86
2021/03/02 13:59:10;;;;;;;11.23;10.23;;;26.60;28.00;;;;;;4959758;23;20473;-86
2021/03/02 14:01:37;;;;;;;10.97;8.63;;;28.20;28.20;;;;;;4916716;29;20489;-90
2021/03/02 14:04:14;;;;;;;11.23;10.13;;;28.40;26.80;;;;;;4917115;29;20208;-88
2021/03/02 14:06:45;;;;;;;12.10;10.90;;;26.90;25.20;;;;;;4912985;29;20421;-88
2021/03/02 14:11:55;;;;;;;9.93;8.90;;;25.70;24.30;;;;;;4907783;23;20484;-90
2021/03/02 14:14:28;;;;;;;10.73;9.63;;;26.70;29.10;;;;;;4867302;29;20457;-90
2021/03/02 14:17:00;;;;;;;14.23;11.83;;;25.70;27.60;;;;;;4883455;29;20185;-90
2021/03/02 14:19:26;;;;;;;12.07;10.33;;;29.70;28.70;;;;;;4884903;29;20430;-89
2021/03/02 14:24:27;;;;;;;9.63;8.93;;;25.80;26.20;;;;;;5308399;23;20501;-88
2021/03/02 14:26:57;;;;;;;11.93;10.73;;;26.80;30.00;;;;;;4895361;29;20441;-84
2021/03/02 14:29:26;;;;;;;12.37;9.30;;;26.30;26.30;;;;;;4911757;29;20461;-89
2021/03/02 14:32:00;;;;;;;12.60;10.43;;;26.80;28.00;;;;;;4913346;29;20414;-89
2021/03/02 14:35:04;;;;;;;12.43;9.30;;;25.80;26.90;;;;;;4915588;29;20449;-88
2021/03/02 14:37:35;;;;;;;12.77;9.83;;;26.90;25.50;;;;;;4899077;29;20476;-90
2021/03/02 14:40:00;;;;;;;17.50;9.00;;;29.70;28.20;;;;;;4898802;29;20416;-88
2021/03/02 14:45:09;;;;;;;18.60;9.67;;;24.90;24.50;;;;;;4923966;23;20244;-90
2021/03/02 14:48:01;;;;;;;11.50;9.83;;;26.70;26.50;;;;;;4901624;29;20445;-88
2021/03/02 14:53:04;;;;;;;10.83;9.73;;;24.60;24.70;;;;;;4935307;29;20458;-87
2021/03/02 14:55:40;;;;;;;13.00;9.70;;;24.70;25.00;;;;;;4893014;29;20456;-87
2021/03/02 14:58:11;;;;;;;12.03;10.10;;;28.70;28.30;;;;;;4909358;29;20433;-87
2021/03/02 15:00:38;;;;;;;11.87;9.20;;;24.90;26.80;;;;;;4911855;29;20470;-88
2021/03/02 15:03:04;;;;;;;9.73;8.83;;;;;;;;;;4914869;29;20440;-88
2021/03/02 15:05:35;;;;;;;16.97;9.77;;;23.20;26.30;;;;;;4913762;29;20480;-87
2021/03/02 15:08:12;;;;;;;11.97;8.80;;;22.70;30.80;;;;;;5029239;23;20487;-88
2021/03/02 15:15:56;;;;;;;13.17;10.03;;;22.90;32.10;;;;;;4927416;29;20476;-89
2021/03/02 15:18:36;;;;;;;11.00;8.87;;;23.20;32.60;;;;;;4916438;29;20435;-88
2021/03/02 15:21:32;;;;;;;40.80;30.83;;;22.90;34.30;;;;;;4930415;29;20523;-88
2021/03/02 15:24:04;;;;;;;17.13;13.20;;;24.00;34.70;;;;;;4915152;29;20516;-89
2021/03/02 15:26:32;;;;;;;10.53;8.53;;;22.70;34.30;;;;;;4912874;29;20910;-90
2021/03/02 15:29:03;;;;;;;39.27;25.87;;;22.80;35.90;;;;;;4916499;29;20444;-86
2021/03/02 15:31:54;;;;;;;34.63;27.17;;;23.00;37.30;;;;;;4918546;29;20431;-89
2021/03/02 15:35:08;;;;;;;11.20;8.43;;;22.90;37.90;;;;;;4935460;29;20785;-89
2021/03/02 15:37:56;;;;;;;17.03;9.50;;;23.10;39.60;;;;;;4920690;29;20419;-91
2021/03/02 15:40:31;;;;;;;19.37;16.00;;;22.40;38.40;;;;;;4939750;29;20406;-87
2021/03/02 15:42:57;;;;;;;17.70;10.57;;;22.40;38.90;;;;;;4922559;29;20454;-87
2021/03/02 15:45:38;;;;;;;13.47;10.90;;;22.20;40.40;;;;;;4920327;29;20531;-88
2021/03/02 15:48:14;;;;;;;30.63;22.23;;;;;;;;;;4915104;29;20956;-89
2021/03/02 15:50:44;;;;;;;10.30;9.30;;;;;;;;;;4918218;29;20430;-87
2021/03/02 15:53:15;;;;;;;12.83;8.67;;;21.50;27.80;;;;;;4919664;29;20523;-90
2021/03/02 15:56:00;;;;;;;19.73;9.27;;;21.20;29.50;;;;;;4917790;29;20419;-89
2021/03/02 15:58:28;;;;;;;13.37;9.73;;;;;;;;;;4920325;29;20424;-91
2021/03/02 16:01:03;;;;;;;12.40;8.40;;;20.40;26.20;;;;;;4921641;29;20412;-88
2021/03/02 16:04:01;;;;;;;42.20;26.37;;;22.40;27.90;;;;;;4904896;29;20423;-88
2021/03/02 16:06:43;;;;;;;38.70;25.80;;;20.00;27.50;;;;;;4936184;29;20463;-87
2021/03/02 16:09:24;;;;;;;14.20;8.97;;;20.30;29.00;;;;;;4921282;29;20451;-87
2021/03/02 16:12:07;;;;;;;42.97;28.97;;;20.00;27.50;;;;;;4940855;29;20492;-91
2021/03/02 16:14:40;;;;;;;12.27;7.80;;;19.80;27.30;;;;;;4906218;29;20487;-91
2021/03/02 16:17:19;;;;;;;9.93;8.43;;;19.90;26.90;;;;;;4915135;29;20492;-89
2021/03/02 16:19:53;;;;;;;20.03;11.60;;;19.10;27.40;;;;;;4935823;29;20423;-89
2021/03/02 16:22:55;;;;;;;11.73;8.97;;;19.10;28.10;;;;;;4935250;29;20490;-90
2021/03/02 16:25:21;;;;;;;20.33;10.03;;;18.70;27.80;;;;;;4918179;29;20480;-91
2021/03/02 16:27:50;;;;;;;19.40;9.70;;;19.60;31.00;;;;;;4935599;29;20416;-86
2021/03/02 16:30:29;;;;;;;14.17;9.97;;;18.30;29.60;;;;;;4919188;29;20432;-90
2021/03/02 16:32:59;;;;;;;16.90;9.00;;;18.90;30.30;;;;;;4935111;29;20471;-88
2021/03/02 16:35:25;;;;;;;16.43;10.90;;;17.80;30.00;;;;;;4937099;29;20428;-89
2021/03/02 16:38:14;;;;;;;15.37;10.53;;;;;;;;;;4937303;29;20424;-90
2021/03/02 16:40:46;;;;;;;15.60;9.90;;;17.30;34.10;;;;;;4935752;29;20453;-90
2021/03/02 16:43:18;;;;;;;11.50;8.00;;;16.90;34.30;;;;;;4908008;29;20432;-87
2021/03/02 16:45:49;;;;;;;16.67;11.47;;;16.80;48.10;;;;;;4917073;29;20483;-88
2021/03/02 16:48:29;;;;;;;21.80;9.27;;;;;;;;;;4981769;23;20493;-88
2021/03/02 16:51:40;;;;;;;20.63;9.00;;;16.30;42.60;;;;;;5028167;23;20491;-89
2021/03/02 16:57:14;;;;;;;11.83;9.43;;;15.60;32.30;;;;;;4449509;23;20687;-89
2021/03/02 16:59:50;;;;;;;22.80;9.10;;;17.30;35.20;;;;;;4906984;24;20498;-87
2021/03/02 17:02:36;;;;;;;;;;;;;;;;;;;;;
2021/03/02 17:08:01;;;;;;;12.20;8.87;;;15.00;39.40;;;;;;4900181;29;20458;-89